createdAt,value
2023-04-18T00:02:24.349Z,10.58
2023-04-18T00:04:52.107Z,10.59
2023-04-18T00:07:19.701Z,10.86
2023-04-18T00:09:47.329Z,10.85
2023-04-18T00:12:14.953Z,10.93
2023-04-18T00:14:42.607Z,11.02
2023-04-18T00:17:11.551Z,10.98
2023-04-18T00:19:39.179Z,10.83
2023-04-18T00:22:06.797Z,10.34
2023-04-18T00:24:34.473Z,10.15
2023-04-18T00:27:02.078Z,10.50
2023-04-18T00:29:29.746Z,9.85
2023-04-18T00:31:58.544Z,9.63
2023-04-18T00:34:27.446Z,9.47
2023-04-18T00:36:56.234Z,9.89
2023-04-18T00:39:23.861Z,9.53
2023-04-18T00:41:51.420Z,10.03
2023-04-18T00:44:18.999Z,10.34
2023-04-18T00:46:46.617Z,10.35
2023-04-18T00:49:14.338Z,10.59
2023-04-18T00:51:43.866Z,10.69
2023-04-18T00:54:12.462Z,9.17
2023-04-18T00:56:40.537Z,9.75
2023-04-18T00:59:09.741Z,9.70
2023-04-18T01:01:37.463Z,9.91
2023-04-18T01:04:05.437Z,9.79
2023-04-18T01:06:34.088Z,9.96
2023-04-18T01:09:03.384Z,9.45
2023-04-18T01:11:31.179Z,9.54
2023-04-18T01:13:59.981Z,9.46
2023-04-18T01:16:28.364Z,9.71
2023-04-18T01:18:56.229Z,9.56
2023-04-18T01:21:23.904Z,9.60
2023-04-18T01:23:52.809Z,9.09
2023-04-18T01:26:21.864Z,9.24
2023-04-18T01:28:49.620Z,8.95
2023-04-18T01:31:17.296Z,8.74
2023-04-18T01:33:44.978Z,9.04
2023-04-18T01:36:12.724Z,8.67
2023-04-18T01:38:40.390Z,9.17
2023-04-18T01:41:08.080Z,9.20
2023-04-18T01:43:37.081Z,9.30
2023-04-18T01:46:05.057Z,9.36
2023-04-18T01:48:32.723Z,9.18
2023-04-18T01:51:00.442Z,9.32
2023-04-18T01:53:28.396Z,9.95
2023-04-18T01:55:56.067Z,9.59
2023-04-18T01:58:24.015Z,9.63
2023-04-18T02:00:54.215Z,10.00
2023-04-18T02:03:21.904Z,9.10
2023-04-18T02:05:50.257Z,9.27
2023-04-18T02:08:17.986Z,10.08
2023-04-18T02:10:45.800Z,9.89
2023-04-18T02:13:16.233Z,9.91
2023-04-18T02:15:44.352Z,9.62
2023-04-18T02:18:13.315Z,10.04
2023-04-18T02:20:42.328Z,9.70
2023-04-18T02:23:10.063Z,9.77
2023-04-18T02:25:37.708Z,9.78
2023-04-18T02:28:05.316Z,9.18
2023-04-18T02:30:32.997Z,9.45
2023-04-18T02:33:00.829Z,9.71
2023-04-18T02:35:30.641Z,10.21
2023-04-18T02:37:58.252Z,10.47
2023-04-18T02:40:25.999Z,10.69
2023-04-18T02:42:53.605Z,10.36
2023-04-18T02:45:21.514Z,10.66
2023-04-18T02:47:55.557Z,10.32
2023-04-18T02:50:24.880Z,9.62
2023-04-18T02:52:53.985Z,9.28
2023-04-18T02:55:22.045Z,9.94
2023-04-18T02:57:49.776Z,10.12
2023-04-18T03:00:17.665Z,9.60
2023-04-18T03:02:45.360Z,9.29
2023-04-18T03:05:13.178Z,9.37
2023-04-18T03:07:41.072Z,8.85
2023-04-18T03:10:10.810Z,8.76
2023-04-18T03:12:38.398Z,8.92
2023-04-18T03:15:12.378Z,9.26
2023-04-18T03:17:40.097Z,9.88
2023-04-18T03:20:08.424Z,9.14
2023-04-18T03:22:36.164Z,9.08
2023-04-18T03:25:04.550Z,9.18
2023-04-18T03:27:33.561Z,9.59
2023-04-18T03:30:01.240Z,9.32
2023-04-18T03:32:29.246Z,8.84
2023-04-18T03:34:56.825Z,8.57
2023-04-18T03:37:24.703Z,8.91
2023-04-18T03:39:52.338Z,9.18
2023-04-18T03:42:19.978Z,9.38
2023-04-18T03:44:48.926Z,9.60
2023-04-18T03:47:16.510Z,9.54
2023-04-18T03:49:44.116Z,10.00
2023-04-18T03:52:11.737Z,10.33
2023-04-18T03:54:39.364Z,10.01
2023-04-18T03:57:07.146Z,9.48
2023-04-18T03:59:34.732Z,9.12
2023-04-18T04:02:03.902Z,9.16
2023-04-18T04:04:32.558Z,9.21
2023-04-18T04:07:00.832Z,9.23
2023-04-18T04:09:28.692Z,9.40
2023-04-18T04:11:56.339Z,9.30
2023-04-18T04:14:23.894Z,9.64
2023-04-18T04:16:51.645Z,9.33
2023-04-18T04:19:21.902Z,9.03
2023-04-18T04:21:49.672Z,8.87
2023-04-18T04:24:17.341Z,8.65
2023-04-18T04:26:45.047Z,8.70
2023-04-18T04:29:13.120Z,8.78
2023-04-18T04:31:40.707Z,8.85
2023-04-18T04:34:08.319Z,8.65
2023-04-18T04:36:37.337Z,8.67
2023-04-18T04:39:05.139Z,8.55
2023-04-18T04:41:32.971Z,8.57
2023-04-18T04:44:00.555Z,8.66
2023-04-18T04:46:28.362Z,8.77
2023-04-18T04:48:56.243Z,8.74
2023-04-18T04:51:23.818Z,8.77
2023-04-18T04:53:52.793Z,8.83
2023-04-18T04:56:20.483Z,8.78
2023-04-18T04:58:48.077Z,8.76
2023-04-18T05:01:15.726Z,8.88
2023-04-18T05:03:43.745Z,9.11
2023-04-18T05:06:12.048Z,8.90
2023-04-18T05:08:39.683Z,8.92
2023-04-18T05:11:08.648Z,8.91
2023-04-18T05:13:36.376Z,8.88
2023-04-18T05:16:04.693Z,8.88
2023-04-18T05:18:34.835Z,8.83
2023-04-18T05:21:02.885Z,8.93
2023-04-18T05:23:32.342Z,8.84
2023-04-18T05:25:59.934Z,9.06
2023-04-18T05:28:29.000Z,8.94
2023-04-18T05:30:56.732Z,8.89
2023-04-18T05:33:24.282Z,8.89
2023-04-18T05:35:53.104Z,9.40
2023-04-18T05:38:20.890Z,10.11
2023-04-18T05:40:48.573Z,10.02
2023-04-18T05:43:16.253Z,10.34
2023-04-18T05:45:45.800Z,10.39
2023-04-18T05:48:14.046Z,10.65
2023-04-18T05:50:41.711Z,11.25
2023-04-18T05:53:09.412Z,11.27
2023-04-18T05:55:37.147Z,11.60
2023-04-18T05:58:04.681Z,11.28
2023-04-18T06:00:32.221Z,10.99
2023-04-18T06:03:01.906Z,11.04
2023-04-18T06:05:30.048Z,10.91
2023-04-18T06:07:57.919Z,10.98
2023-04-18T06:10:25.475Z,11.36
2023-04-18T06:12:53.083Z,11.18
2023-04-18T06:15:21.454Z,11.99
2023-04-18T06:17:50.429Z,11.94
2023-04-18T06:20:19.623Z,11.57
2023-04-18T06:22:47.173Z,12.26
2023-04-18T06:25:14.911Z,12.71
2023-04-18T06:27:42.467Z,12.53
2023-04-18T06:30:10.698Z,12.54
2023-04-18T06:32:40.670Z,12.86
2023-04-18T06:35:10.172Z,12.80
2023-04-18T06:37:41.637Z,12.29
2023-04-18T06:40:11.317Z,12.06
2023-04-18T06:42:39.211Z,12.65
2023-04-18T06:45:07.819Z,12.64
2023-04-18T06:47:35.780Z,11.28
2023-04-18T06:50:04.133Z,11.69
2023-04-18T06:52:31.798Z,12.10
2023-04-18T06:55:01.047Z,11.85
2023-04-18T06:57:29.605Z,11.56
2023-04-18T07:00:03.799Z,11.13
2023-04-18T07:02:31.687Z,11.04
2023-04-18T07:04:59.376Z,11.18
2023-04-18T07:07:27.234Z,10.77
2023-04-18T07:09:55.033Z,11.03
2023-04-18T07:12:25.573Z,11.44
2023-04-18T07:14:55.192Z,11.64
2023-04-18T07:17:22.941Z,11.63
2023-04-18T07:19:52.189Z,12.03
2023-04-18T07:22:19.841Z,12.07
2023-04-18T07:24:47.534Z,11.85
2023-04-18T07:27:15.363Z,11.75
2023-04-18T07:29:44.422Z,11.83
2023-04-18T07:32:12.061Z,12.02
2023-04-18T07:34:39.609Z,11.91
2023-04-18T07:37:07.171Z,11.75
2023-04-18T07:39:34.746Z,12.09
2023-04-18T07:42:03.403Z,12.36
2023-04-18T07:44:31.072Z,13.14
2023-04-18T07:47:00.012Z,12.62
2023-04-18T07:49:27.605Z,13.07
2023-04-18T07:51:55.830Z,14.56
2023-04-18T07:54:23.748Z,13.76
2023-04-18T07:56:51.327Z,14.99
2023-04-18T07:59:18.928Z,15.13
2023-04-18T08:01:46.606Z,15.25
2023-04-18T08:04:15.754Z,14.99
2023-04-18T08:06:43.486Z,15.40
2023-04-18T08:09:11.758Z,14.51
2023-04-18T08:11:40.973Z,14.05
2023-04-18T08:14:08.615Z,14.74
2023-04-18T08:16:36.553Z,15.25
2023-04-18T08:19:04.176Z,15.26
2023-04-18T08:21:33.127Z,15.16
2023-04-18T08:24:00.906Z,16.02
2023-04-18T08:26:28.862Z,15.17
2023-04-18T08:28:56.483Z,15.13
2023-04-18T08:31:24.408Z,14.10
2023-04-18T08:33:52.041Z,14.16
2023-04-18T08:36:19.626Z,12.91
2023-04-18T08:38:48.579Z,13.84
2023-04-18T08:41:21.866Z,14.25
2023-04-18T08:43:49.569Z,16.11
2023-04-18T08:46:17.488Z,16.57
2023-04-18T08:48:48.583Z,17.19
2023-04-18T08:51:16.343Z,16.78
2023-04-18T08:53:44.309Z,17.12
2023-04-18T08:56:14.834Z,16.26
2023-04-18T08:58:54.216Z,15.35
2023-04-18T09:01:25.680Z,15.03
2023-04-18T09:04:01.789Z,14.61
2023-04-18T09:06:30.590Z,14.07
2023-04-18T09:09:01.246Z,13.42
2023-04-18T09:11:31.438Z,13.39
2023-04-18T09:13:59.853Z,13.68
2023-04-18T09:16:28.155Z,14.14
2023-04-18T09:19:09.587Z,13.91
2023-04-18T09:21:42.601Z,14.47
2023-04-18T09:24:28.005Z,15.67
2023-04-18T09:26:58.601Z,15.41
2023-04-18T09:29:41.972Z,14.07
2023-04-18T09:32:09.718Z,15.27
2023-04-18T09:34:42.067Z,13.45
2023-04-18T09:37:12.113Z,14.24
2023-04-18T09:39:42.313Z,15.77
2023-04-18T09:42:12.414Z,15.48
2023-04-18T09:44:59.302Z,13.68
2023-04-18T09:47:28.514Z,14.32
2023-04-18T09:49:57.555Z,14.44
2023-04-18T09:52:25.730Z,13.85
2023-04-18T09:54:56.712Z,14.33
2023-04-18T09:57:30.129Z,15.13
2023-04-18T10:00:07.888Z,13.98
2023-04-18T10:02:50.950Z,15.99
2023-04-18T10:05:24.336Z,17.04
2023-04-18T10:07:55.657Z,17.17
2023-04-18T10:10:26.854Z,16.82
2023-04-18T10:12:57.710Z,17.07
2023-04-18T10:15:27.655Z,16.71
2023-04-18T10:20:30.295Z,17.68
2023-04-18T10:23:00.405Z,17.67
2023-04-18T10:25:48.432Z,17.38
2023-04-18T10:28:20.393Z,16.55
2023-04-18T10:30:59.253Z,16.29
2023-04-18T10:33:32.374Z,17.18
2023-04-18T10:36:03.662Z,16.95
2023-04-18T10:38:32.635Z,17.25
2023-04-18T10:41:24.476Z,16.29
2023-04-18T10:44:21.635Z,16.43
2023-04-18T10:47:21.186Z,16.55
2023-04-18T10:49:56.947Z,17.13
2023-04-18T10:52:24.713Z,17.62
2023-04-18T10:54:59.234Z,16.85
2023-04-18T10:57:37.959Z,16.78
2023-04-18T11:00:16.191Z,16.59
2023-04-18T11:02:55.114Z,16.55
2023-04-18T11:05:25.783Z,17.01
2023-04-18T11:07:54.876Z,17.10
2023-04-18T11:10:25.093Z,18.37
2023-04-18T11:12:54.484Z,17.27
2023-04-18T11:15:25.580Z,16.91
2023-04-18T11:18:02.115Z,17.84
2023-04-18T11:20:37.798Z,18.25
2023-04-18T11:23:17.278Z,17.80
2023-04-18T11:25:45.687Z,19.01
2023-04-18T11:28:20.707Z,18.31
2023-04-18T11:30:50.083Z,17.72
2023-04-18T11:33:18.014Z,16.14
2023-04-18T11:35:46.813Z,16.32
2023-04-18T11:38:16.261Z,15.97
2023-04-18T11:40:48.139Z,16.79
2023-04-18T11:43:21.375Z,15.90
2023-04-18T11:45:59.016Z,17.40
2023-04-18T11:48:34.480Z,16.86
2023-04-18T11:51:02.198Z,16.95
2023-04-18T11:53:33.312Z,16.21
2023-04-18T11:56:01.092Z,18.04
2023-04-18T11:58:32.626Z,18.80
2023-04-18T12:01:16.246Z,18.17
2023-04-18T12:03:46.975Z,18.24
2023-04-18T12:06:15.313Z,18.61
2023-04-18T12:08:43.383Z,17.23
2023-04-18T12:11:20.206Z,16.71
2023-04-18T12:13:47.737Z,15.92
2023-04-18T12:16:16.778Z,17.40
2023-04-18T12:18:44.556Z,17.32
2023-04-18T12:21:12.263Z,16.60
2023-04-18T12:23:41.327Z,16.24
2023-04-18T12:26:16.048Z,16.31
2023-04-18T12:28:45.974Z,16.27
2023-04-18T12:31:13.633Z,17.87
2023-04-18T12:33:42.638Z,18.97
2023-04-18T12:36:10.336Z,17.63
2023-04-18T12:38:38.012Z,17.70
2023-04-18T12:41:05.978Z,17.52
2023-04-18T12:43:34.641Z,19.52
2023-04-18T12:46:03.529Z,18.55
2023-04-18T12:48:31.208Z,19.05
2023-04-18T12:51:00.406Z,18.34
2023-04-18T12:53:30.904Z,18.19
2023-04-18T12:55:59.097Z,16.76
2023-04-18T12:58:26.684Z,17.80
2023-04-18T13:00:54.489Z,17.74
2023-04-18T13:03:23.822Z,18.29
2023-04-18T13:05:53.064Z,17.99
2023-04-18T13:08:22.724Z,17.65
2023-04-18T13:10:50.864Z,17.75
2023-04-18T13:13:20.337Z,18.48
2023-04-18T13:15:51.520Z,19.05
2023-04-18T13:18:19.546Z,18.90
2023-04-18T13:20:47.136Z,19.92
2023-04-18T13:23:18.392Z,19.68
2023-04-18T13:25:47.549Z,18.35
2023-04-18T13:28:15.279Z,18.84
2023-04-18T13:30:43.942Z,19.22
2023-04-18T13:33:11.954Z,20.22
2023-04-18T13:35:39.626Z,18.22
2023-04-18T13:38:14.703Z,18.49
2023-04-18T13:40:42.376Z,18.45
2023-04-18T13:43:15.295Z,19.60
2023-04-18T13:45:43.685Z,19.25
2023-04-18T13:48:11.498Z,19.09
2023-04-18T13:50:39.179Z,19.16
2023-04-18T13:53:06.824Z,18.50
2023-04-18T13:55:35.981Z,18.46
2023-04-18T13:58:04.580Z,17.53
2023-04-18T14:00:36.254Z,15.86
2023-04-18T14:03:04.267Z,16.71
2023-04-18T14:05:31.963Z,18.06
2023-04-18T14:07:59.664Z,18.64
2023-04-18T14:10:29.653Z,18.86
2023-04-18T14:12:57.512Z,17.94
2023-04-18T14:15:26.674Z,17.61
2023-04-18T14:17:57.868Z,16.12
2023-04-18T14:20:27.879Z,16.85
2023-04-18T14:22:55.442Z,17.80
2023-04-18T14:25:23.906Z,17.19
2023-04-18T14:28:04.768Z,17.05
2023-04-18T14:30:32.657Z,17.86
2023-04-18T14:33:04.802Z,15.50
2023-04-18T14:35:34.104Z,16.15
2023-04-18T14:38:01.892Z,16.74
2023-04-18T14:40:32.727Z,17.60
2023-04-18T14:43:00.955Z,16.83
2023-04-18T14:45:32.393Z,16.52
2023-04-18T14:48:01.415Z,15.28
2023-04-18T14:50:29.277Z,16.70
2023-04-18T14:52:56.948Z,16.37
2023-04-18T14:55:25.425Z,16.87
2023-04-18T14:57:53.039Z,16.08
2023-04-18T15:00:21.097Z,15.76
2023-04-18T15:02:49.301Z,16.13
2023-04-18T15:05:19.996Z,17.64
2023-04-18T15:07:47.581Z,15.91
2023-04-18T15:10:16.207Z,15.93
2023-04-18T15:12:44.005Z,16.64
2023-04-18T15:15:11.655Z,16.19
2023-04-18T15:17:39.663Z,15.73
2023-04-18T15:20:08.434Z,16.70
2023-04-18T15:22:37.716Z,16.31
2023-04-18T15:25:09.832Z,15.88
2023-04-18T15:27:37.420Z,16.53
2023-04-18T15:30:09.135Z,15.77
2023-04-18T15:32:36.808Z,15.80
2023-04-18T15:35:05.725Z,17.04
2023-04-18T15:37:33.423Z,16.99
2023-04-18T15:40:02.463Z,15.94
2023-04-18T15:42:30.187Z,15.68
2023-04-18T15:44:57.796Z,15.99
2023-04-18T15:47:25.434Z,15.05
2023-04-18T15:49:53.132Z,15.22
2023-04-18T15:52:20.731Z,15.97
2023-04-18T15:54:48.335Z,15.72
2023-04-18T15:57:17.471Z,15.87
2023-04-18T15:59:45.285Z,15.47
2023-04-18T16:02:13.023Z,16.51
2023-04-18T16:04:40.821Z,17.97
2023-04-18T16:07:08.454Z,17.13
2023-04-18T16:09:36.074Z,17.04
2023-04-18T16:12:06.535Z,17.30
2023-04-18T16:14:35.480Z,17.59
2023-04-18T16:17:03.069Z,17.22
2023-04-18T16:19:30.858Z,16.76
2023-04-18T16:21:58.649Z,16.33
2023-04-18T16:24:26.193Z,16.37
2023-04-18T16:26:55.985Z,16.84
2023-04-18T16:29:23.850Z,17.24
2023-04-18T16:31:55.100Z,17.64
2023-04-18T16:34:22.986Z,18.32
2023-04-18T16:36:53.047Z,17.75
2023-04-18T16:39:22.350Z,17.04
2023-04-18T16:41:51.010Z,16.87
2023-04-18T16:44:21.078Z,16.85
2023-04-18T16:46:48.726Z,16.84
2023-04-18T16:49:17.779Z,16.91
2023-04-18T16:51:45.562Z,16.68
2023-04-18T16:54:19.749Z,16.64
2023-04-18T16:56:47.853Z,16.70
2023-04-18T16:59:15.988Z,16.64
2023-04-18T17:01:43.880Z,16.62
2023-04-18T17:04:13.040Z,16.60
2023-04-18T17:06:45.210Z,16.76
2023-04-18T17:09:14.442Z,16.88
2023-04-18T17:11:43.065Z,16.90
2023-04-18T17:14:12.687Z,17.25
2023-04-18T17:16:42.013Z,16.69
2023-04-18T17:19:11.095Z,16.73
2023-04-18T17:21:38.938Z,16.90
2023-04-18T17:24:08.955Z,17.08
2023-04-18T17:26:40.226Z,17.40
2023-04-18T17:29:09.309Z,17.44
2023-04-18T17:31:37.171Z,17.21
2023-04-18T17:34:05.087Z,16.79
2023-04-18T17:36:33.291Z,16.91
2023-04-18T17:39:01.592Z,17.15
2023-04-18T17:41:30.804Z,17.35
2023-04-18T17:43:58.414Z,17.14
2023-04-18T17:46:26.181Z,16.76
2023-04-18T17:48:53.841Z,16.77
2023-04-18T17:51:21.937Z,16.44
2023-04-18T17:53:49.698Z,16.33
2023-04-18T17:56:18.540Z,16.29
2023-04-18T17:58:47.546Z,16.38
2023-04-18T18:01:18.610Z,16.45
2023-04-18T18:03:47.168Z,16.83
2023-04-18T18:06:15.857Z,16.66
2023-04-18T18:08:43.986Z,16.77
2023-04-18T18:11:11.815Z,16.92
2023-04-18T18:13:41.213Z,16.81
2023-04-18T18:16:11.418Z,16.49
2023-04-18T18:18:41.913Z,16.83
2023-04-18T18:21:09.598Z,16.71
2023-04-18T18:23:38.391Z,16.37
2023-04-18T18:26:06.001Z,16.23
2023-04-18T18:28:33.640Z,15.49
2023-04-18T18:31:02.995Z,15.62
2023-04-18T18:33:32.418Z,15.43
2023-04-18T18:36:01.405Z,15.14
2023-04-18T18:38:33.100Z,14.95
2023-04-18T18:41:03.723Z,15.08
2023-04-18T18:43:34.854Z,14.99
2023-04-18T18:46:04.049Z,14.79
2023-04-18T18:48:35.134Z,14.65
2023-04-18T18:51:05.271Z,14.72
2023-04-18T18:53:37.744Z,14.77
2023-04-18T18:56:06.766Z,14.71
2023-04-18T18:58:34.425Z,14.62
2023-04-18T19:01:04.746Z,14.80
2023-04-18T19:03:33.961Z,14.55
2023-04-18T19:06:03.492Z,14.52
2023-04-18T19:08:36.543Z,14.40
2023-04-18T19:11:05.622Z,14.52
2023-04-18T19:13:34.462Z,14.54
2023-04-18T19:16:03.935Z,14.36
2023-04-18T19:18:37.325Z,14.40
2023-04-18T19:21:07.984Z,14.23
2023-04-18T19:23:35.621Z,14.15
2023-04-18T19:26:04.445Z,14.05
2023-04-18T19:28:32.284Z,14.21
2023-04-18T19:31:00.176Z,14.11
2023-04-18T19:33:28.352Z,14.08
2023-04-18T19:35:57.317Z,14.10
2023-04-18T19:38:25.127Z,14.03
2023-04-18T19:40:52.891Z,14.24
2023-04-18T19:43:20.977Z,14.20
2023-04-18T19:45:50.243Z,13.98
2023-04-18T19:48:19.568Z,14.07
2023-04-18T19:50:47.537Z,14.16
2023-04-18T19:53:16.642Z,14.15
2023-04-18T19:55:44.632Z,13.98
2023-04-18T19:58:12.244Z,14.11
2023-04-18T20:00:40.089Z,13.85
2023-04-18T20:03:08.251Z,13.88
2023-04-18T20:05:36.207Z,14.05
2023-04-18T20:08:06.196Z,13.77
2023-04-18T20:10:35.510Z,13.68
2023-04-18T20:13:04.720Z,13.76
2023-04-18T20:15:32.349Z,13.75
2023-04-18T20:17:59.925Z,13.69
2023-04-18T20:20:27.761Z,13.69
2023-04-18T20:22:55.288Z,13.58
2023-04-18T20:25:23.084Z,13.54
2023-04-18T20:27:52.486Z,13.67
2023-04-18T20:30:21.550Z,13.60
2023-04-18T20:32:53.315Z,13.61
2023-04-18T20:35:21.267Z,13.51
2023-04-18T20:37:49.458Z,13.46
2023-04-18T20:40:17.092Z,13.44
2023-04-18T20:42:44.701Z,13.46
2023-04-18T20:45:13.646Z,13.60
2023-04-18T20:47:41.413Z,13.40
2023-04-18T20:50:10.220Z,13.42
2023-04-18T20:52:38.044Z,13.42
2023-04-18T20:55:06.370Z,13.38
2023-04-18T20:57:33.994Z,13.30
2023-04-18T21:00:01.791Z,13.26
2023-04-18T21:02:31.923Z,13.30
2023-04-18T21:04:59.724Z,13.39
2023-04-18T21:07:27.399Z,13.74
2023-04-18T21:09:55.191Z,14.07
2023-04-18T21:12:22.812Z,13.82
2023-04-18T21:14:50.424Z,13.42
2023-04-18T21:17:18.057Z,13.68
2023-04-18T21:19:48.462Z,13.76
2023-04-18T21:22:16.862Z,13.14
2023-04-18T21:24:44.428Z,13.05
2023-04-18T21:27:12.186Z,13.33
2023-04-18T21:29:40.850Z,12.86
2023-04-18T21:32:08.592Z,13.55
2023-04-18T21:34:36.159Z,13.78
2023-04-18T21:37:05.225Z,13.21
2023-04-18T21:39:33.146Z,13.80
2023-04-18T21:42:00.719Z,14.02
2023-04-18T21:44:28.273Z,14.15
2023-04-18T21:46:56.564Z,14.48
2023-04-18T21:49:24.234Z,14.60
2023-04-18T21:51:52.090Z,13.68
2023-04-18T21:54:21.149Z,14.11
2023-04-18T21:56:51.090Z,13.63
2023-04-18T21:59:18.632Z,13.67
2023-04-18T22:01:46.229Z,13.87
2023-04-18T22:04:16.804Z,13.74
2023-04-18T22:06:44.618Z,14.11
2023-04-18T22:09:12.395Z,13.42
2023-04-18T22:11:41.387Z,13.94
2023-04-18T22:14:09.003Z,14.39
2023-04-18T22:16:36.749Z,14.67
2023-04-18T22:19:04.394Z,14.55
2023-04-18T22:21:32.485Z,14.63
2023-04-18T22:24:00.047Z,14.59
2023-04-18T22:26:27.701Z,13.88
2023-04-18T22:28:56.761Z,13.96
2023-04-18T22:31:25.771Z,14.28
2023-04-18T22:33:53.801Z,14.53
2023-04-18T22:36:21.600Z,14.07
2023-04-18T22:38:50.570Z,14.33
2023-04-18T22:41:20.500Z,14.10
2023-04-18T22:43:48.061Z,14.35
2023-04-18T22:46:18.533Z,13.78
2023-04-18T22:48:46.379Z,13.39
2023-04-18T22:51:14.277Z,13.74
2023-04-18T22:53:41.848Z,13.67
2023-04-18T22:56:09.414Z,13.24
2023-04-18T22:58:37.032Z,13.23
2023-04-18T23:01:04.958Z,13.61
2023-04-18T23:03:34.564Z,13.82
2023-04-18T23:06:02.501Z,13.37
2023-04-18T23:08:30.181Z,13.01
2023-04-18T23:10:57.731Z,13.83
2023-04-18T23:13:25.897Z,13.66
2023-04-18T23:15:53.462Z,12.90
2023-04-18T23:18:21.121Z,13.20
2023-04-18T23:20:50.079Z,13.78
2023-04-18T23:23:17.949Z,12.79
2023-04-18T23:25:45.689Z,12.81
2023-04-18T23:28:13.246Z,13.58
2023-04-18T23:30:41.150Z,13.75
2023-04-18T23:33:08.769Z,13.86
2023-04-18T23:35:36.594Z,13.82
2023-04-18T23:38:05.592Z,13.90
2023-04-18T23:40:33.237Z,13.62
2023-04-18T23:43:01.752Z,13.39
2023-04-18T23:45:29.330Z,13.70
2023-04-18T23:47:56.930Z,12.56
2023-04-18T23:50:24.537Z,11.71
2023-04-18T23:52:52.105Z,11.63
2023-04-18T23:55:21.128Z,11.27
2023-04-18T23:57:48.799Z,11.37
